Aeroporto :
LOGIN :

Iscrizione | Disclaimer

   EN    FR    IT 

 










Sommario :    VFR   VFR Marginale   IFR   IFR Intensivo   IFR Molto Intensivo
Visibilità : 
Base nubi : 
>= 8 km
>= 3000ft
5 / 8 km
1000 / 3000 ft
1500m / 5 km
500 / 1000 ft
800 / 1500m
200 / 500 ft
< 800m
< 200 ft
Simboli :   Temporali  Nebbia  Neve Forte  Precipitazioni Forti  Vento > 20 kt
SIGMETs :   Varie  Temporali  Ghiacco  Turbolenza  Onda orograficha  Ceneri Vulcaniche







- Altitudine del aeroporto : 7 ft
- Codice IATA : ESH
- Carte del aeroporto


EGKA - Shoreham

ULTIMO METAR :
  • 211750Z 18003KT 6000 BKN023 10/09 Q1032

METARs OBSOLETI :
  • 211720Z 21004KT 7000 BKN022 10/09 Q1032
  • 211650Z 21006KT 8000 BKN022 10/09 Q1032
  • 211620Z 21006KT 9000 BKN022 10/09 Q1032
  • 211550Z 21007KT 9999 BKN023 10/09 Q1032
  • 211520Z 20006KT 9999 BKN023 10/09 Q1032

TAF AMD TAF EGKA
Valido dal 21 a 16 ore il 21 a 19 ore UTC


211620Z 2116/2119 23005KT 9999 BKN020
TEMPO 2116/2119 9000 BKN014
ATIS : +44 1273 467 372
Nessun NOTAM noto per questo aeroporto.



MetMap, La meteo Aeronautica in un colpo d'occhio ! - Copyright ORBIFLY Dicembre 2007 - Disclaimer

ORBIFLY MET'MAP TEAM :

Programmazione e sviluppo : Alexandra Zaïnal
Concezione e sviluppo : Baudouin d'Aumeries
Co-Programmazione e sviluppo : Marc-Olivier Méhu
Supporto tecnico e logistico : Manuel Goepfert
Aiuto per la traduzione : Arnaldo La Scala

Contatto : metmap@orbifly.com




FONTI E CREDITI :

   NOAA